Time;durP1;ratioP1;P1;durP2;ratioP2;P2;SDS_P1;SDS_P2;PMS_P1;PMS_P2;Temp;Humidity;BMP_temperature;BMP_pressure;BME280_temperature;BME280_humidity;BME280_pressure;Samples;Min_cycle;Max_cycle;Signal;HPM_P1;HPM_P2
2023/08/15 00:01:56;;;;;;;6.65;1.90;;;16.80;99.90;;;;;;4845299;29;20375;-52
2023/08/15 00:04:22;;;;;;;7.93;1.88;;;16.70;99.90;;;;;;4845420;29;20076;-51
2023/08/15 00:06:49;;;;;;;8.25;1.80;;;16.70;99.90;;;;;;4845234;29;20053;-51
2023/08/15 00:09:16;;;;;;;6.38;1.90;;;16.60;99.90;;;;;;4845318;29;20042;-49
2023/08/15 00:11:43;;;;;;;8.52;2.05;;;16.60;99.90;;;;;;4845325;29;20080;-56
2023/08/15 00:14:11;;;;;;;7.78;2.38;;;16.60;99.90;;;;;;4845020;29;20041;-52
2023/08/15 00:16:37;;;;;;;10.90;2.38;;;16.50;99.90;;;;;;4844889;29;20078;-54
2023/08/15 00:19:04;;;;;;;8.45;1.70;;;16.50;99.90;;;;;;4845395;29;20132;-53
2023/08/15 00:21:31;;;;;;;9.38;2.00;;;16.50;99.90;;;;;;4844987;29;20050;-51
2023/08/15 00:23:58;;;;;;;10.40;2.42;;;16.40;99.90;;;;;;4845094;29;20053;-55
2023/08/15 00:26:25;;;;;;;9.00;1.85;;;16.50;99.90;;;;;;4844706;29;20129;-56
2023/08/15 00:28:52;;;;;;;7.22;1.90;;;16.50;99.90;;;;;;4844779;29;20046;-51
2023/08/15 00:31:18;;;;;;;7.50;1.70;;;16.40;99.90;;;;;;4844662;29;20058;-52
2023/08/15 00:33:46;;;;;;;7.85;1.92;;;16.40;99.90;;;;;;4858680;29;20050;-58
2023/08/15 00:36:12;;;;;;;7.00;2.05;;;16.30;99.90;;;;;;4858725;29;20081;-57
2023/08/15 00:38:40;;;;;;;4.43;1.50;;;16.30;99.90;;;;;;4844819;29;20577;-54
2023/08/15 00:41:06;;;;;;;11.88;2.30;;;16.30;99.90;;;;;;4858588;29;20050;-57
2023/08/15 00:43:34;;;;;;;9.80;1.85;;;16.20;99.90;;;;;;4858561;29;20046;-56
2023/08/15 00:46:01;;;;;;;6.60;2.10;;;16.20;99.90;;;;;;4844716;29;20038;-56
2023/08/15 00:48:29;;;;;;;7.65;2.10;;;16.20;99.90;;;;;;4858771;29;20058;-54
2023/08/15 00:50:56;;;;;;;4.78;1.63;;;16.10;99.90;;;;;;4843537;29;20046;-56
2023/08/15 00:53:23;;;;;;;6.93;1.77;;;16.10;99.90;;;;;;4843500;29;20045;-56
2023/08/15 00:55:50;;;;;;;9.07;1.80;;;16.10;99.90;;;;;;4843839;29;20049;-56
2023/08/15 00:58:17;;;;;;;11.85;2.20;;;16.10;99.90;;;;;;4844374;29;20069;-55
2023/08/15 01:00:45;;;;;;;11.27;2.15;;;16.10;99.90;;;;;;4843349;29;20125;-53
2023/08/15 01:03:12;;;;;;;7.63;2.08;;;16.10;99.90;;;;;;4844492;29;20166;-56
2023/08/15 01:05:39;;;;;;;10.55;1.85;;;16.00;99.90;;;;;;4844232;29;20121;-58
2023/08/15 01:08:06;;;;;;;6.88;1.70;;;16.00;99.90;;;;;;4844596;29;20137;-56
2023/08/15 01:10:32;;;;;;;8.13;1.80;;;16.00;99.90;;;;;;4844523;29;20057;-56
2023/08/15 01:12:59;;;;;;;9.15;1.70;;;15.90;99.90;;;;;;4844378;29;20073;-57
2023/08/15 01:15:29;;;;;;;7.72;1.92;;;15.90;99.90;;;;;;4844270;29;20486;-55
2023/08/15 01:17:56;;;;;;;9.18;2.05;;;15.90;99.90;;;;;;4858378;29;20061;-56
2023/08/15 01:20:23;;;;;;;6.93;2.10;;;15.90;99.90;;;;;;4844759;29;20388;-56
2023/08/15 01:22:49;;;;;;;8.00;1.90;;;15.80;99.90;;;;;;4844559;29;20046;-54
2023/08/15 01:25:16;;;;;;;9.10;2.00;;;15.80;99.90;;;;;;4857900;29;20053;-53
2023/08/15 01:27:43;;;;;;;9.32;2.08;;;15.80;99.90;;;;;;4844112;29;20126;-52
2023/08/15 01:30:10;;;;;;;7.60;1.92;;;15.70;99.90;;;;;;4844032;29;20362;-53
2023/08/15 01:32:39;;;;;;;10.52;2.20;;;15.70;99.90;;;;;;4844369;29;20151;-57
2023/08/15 01:35:06;;;;;;;7.22;1.80;;;15.70;99.90;;;;;;4844178;29;20046;-55
2023/08/15 01:37:33;;;;;;;9.07;2.25;;;15.70;99.90;;;;;;4843633;29;20056;-54
2023/08/15 01:40:00;;;;;;;6.90;1.60;;;15.60;99.90;;;;;;4842817;29;20107;-57
2023/08/15 01:42:29;;;;;;;7.38;1.90;;;15.60;99.90;;;;;;4843931;29;20081;-55
2023/08/15 01:44:55;;;;;;;6.88;1.90;;;15.60;99.90;;;;;;4857810;29;20072;-55
2023/08/15 01:47:22;;;;;;;4.38;1.67;;;15.60;99.90;;;;;;4842106;29;20046;-55
2023/08/15 01:49:49;;;;;;;8.35;2.78;;;15.50;99.90;;;;;;4857656;29;20114;-56
2023/08/15 01:52:16;;;;;;;5.32;1.95;;;15.50;99.90;;;;;;4843599;29;20038;-53
2023/08/15 01:54:43;;;;;;;6.72;2.10;;;15.40;99.90;;;;;;4843770;29;20050;-56
2023/08/15 01:57:10;;;;;;;7.25;2.08;;;15.40;99.90;;;;;;4843192;29;20506;-53
2023/08/15 01:59:37;;;;;;;8.68;2.15;;;15.40;99.90;;;;;;4857858;29;20068;-54
2023/08/15 02:02:06;;;;;;;7.25;2.25;;;15.40;99.90;;;;;;4857808;29;20572;-55
2023/08/15 02:04:33;;;;;;;10.63;2.22;;;15.40;99.90;;;;;;4857444;29;20050;-56
2023/08/15 02:07:00;;;;;;;5.65;1.48;;;15.30;99.90;;;;;;4843173;29;20052;-56
2023/08/15 02:09:27;;;;;;;10.80;2.45;;;15.30;99.90;;;;;;4857225;29;20050;-52
2023/08/15 02:11:54;;;;;;;6.57;1.83;;;15.30;99.90;;;;;;4842999;29;20042;-55
2023/08/15 02:14:21;;;;;;;6.25;1.98;;;15.30;99.90;;;;;;4857540;29;20046;-52
2023/08/15 02:16:48;;;;;;;4.93;1.73;;;15.20;99.90;;;;;;4843309;29;20101;-52
2023/08/15 02:19:14;;;;;;;7.88;2.05;;;15.20;99.90;;;;;;4842155;29;20077;-56
2023/08/15 02:21:41;;;;;;;5.82;1.98;;;15.20;99.90;;;;;;4843459;29;20048;-55
2023/08/15 02:24:08;;;;;;;5.53;1.80;;;15.10;99.90;;;;;;4843147;29;20049;-53
2023/08/15 02:26:35;;;;;;;7.70;1.83;;;15.10;99.90;;;;;;4843270;29;20038;-57
2023/08/15 02:29:03;;;;;;;7.40;1.77;;;15.00;99.90;;;;;;4843085;29;20110;-55
2023/08/15 02:31:30;;;;;;;8.32;1.80;;;15.00;99.90;;;;;;4857338;29;20079;-54
2023/08/15 02:33:56;;;;;;;6.32;2.15;;;15.00;99.90;;;;;;4843230;29;20538;-55
2023/08/15 02:36:23;;;;;;;7.13;2.00;;;15.00;99.90;;;;;;4843148;29;20512;-56
2023/08/15 02:38:50;;;;;;;7.13;1.67;;;14.90;99.90;;;;;;4843050;29;20125;-56
2023/08/15 02:41:17;;;;;;;6.57;1.90;;;14.90;99.90;;;;;;4842752;29;20513;-54
2023/08/15 02:43:45;;;;;;;7.80;2.10;;;14.90;99.90;;;;;;4842698;29;20052;-51
2023/08/15 02:46:12;;;;;;;9.18;1.80;;;14.80;99.90;;;;;;4842712;29;20050;-56
2023/08/15 02:48:39;;;;;;;8.80;1.83;;;14.80;99.90;;;;;;4856935;29;20141;-56
2023/08/15 02:51:07;;;;;;;3.72;1.70;;;14.80;99.90;;;;;;4857135;29;20555;-56
2023/08/15 02:53:34;;;;;;;4.65;1.50;;;14.70;99.90;;;;;;4841759;29;20078;-54
2023/08/15 02:56:01;;;;;;;7.13;1.98;;;14.70;99.90;;;;;;4857052;29;20394;-53
2023/08/15 02:58:28;;;;;;;4.97;1.90;;;14.70;99.90;;;;;;4842632;29;20060;-54
2023/08/15 03:00:54;;;;;;;6.93;2.15;;;14.70;99.90;;;;;;4841328;29;20056;-50
2023/08/15 03:03:21;;;;;;;6.32;1.60;;;14.70;99.90;;;;;;4856987;29;20114;-52
2023/08/15 03:05:48;;;;;;;5.63;1.70;;;14.70;99.90;;;;;;4856875;29;20057;-52
2023/08/15 03:08:15;;;;;;;5.45;2.08;;;14.70;99.90;;;;;;4842256;29;20045;-56
2023/08/15 03:10:42;;;;;;;5.63;1.88;;;14.60;99.90;;;;;;4856662;29;20145;-56
2023/08/15 03:13:10;;;;;;;7.82;1.77;;;14.60;99.90;;;;;;4856723;29;20046;-55
2023/08/15 03:15:37;;;;;;;5.10;1.75;;;14.60;99.90;;;;;;4841463;29;20494;-54
2023/08/15 03:18:05;;;;;;;7.30;1.98;;;14.60;99.90;;;;;;4856196;29;20058;-53
2023/08/15 03:20:32;;;;;;;6.35;1.92;;;14.50;99.90;;;;;;4845550;29;20393;-55
2023/08/15 03:22:59;;;;;;;4.90;1.75;;;14.50;99.90;;;;;;4846538;29;20082;-51
2023/08/15 03:25:26;;;;;;;6.15;1.83;;;14.50;99.90;;;;;;4860025;29;20053;-55
2023/08/15 03:27:54;;;;;;;6.55;1.95;;;14.50;99.90;;;;;;4844721;29;20068;-55
2023/08/15 03:30:21;;;;;;;6.20;1.80;;;14.40;99.90;;;;;;4844497;29;20493;-56
2023/08/15 03:32:49;;;;;;;7.55;2.13;;;14.40;99.90;;;;;;4860111;29;20422;-54
2023/08/15 03:35:16;;;;;;;7.18;2.00;;;14.30;99.90;;;;;;4859669;29;20414;-56
2023/08/15 03:37:46;;;;;;;7.32;1.90;;;14.30;99.90;;;;;;4845680;29;20557;-53
2023/08/15 03:40:14;;;;;;;7.13;2.00;;;14.30;99.90;;;;;;4859843;29;20061;-51
2023/08/15 03:42:41;;;;;;;6.68;2.10;;;14.30;99.90;;;;;;4845990;29;20443;-48
2023/08/15 03:45:07;;;;;;;4.40;1.98;;;14.30;99.90;;;;;;4860016;29;20038;-56
2023/08/15 03:47:34;;;;;;;5.70;1.80;;;14.30;99.90;;;;;;4845763;29;20037;-56
2023/08/15 03:50:02;;;;;;;4.35;1.70;;;14.30;99.90;;;;;;4845382;29;20034;-56
2023/08/15 03:52:32;;;;;;;7.22;2.30;;;14.20;99.90;;;;;;4845641;29;20050;-55
2023/08/15 03:55:00;;;;;;;6.82;2.00;;;14.20;99.90;;;;;;4859896;29;20517;-56
2023/08/15 03:57:27;;;;;;;7.07;2.13;;;14.10;99.90;;;;;;4844121;29;20066;-54
2023/08/15 03:59:54;;;;;;;6.40;2.28;;;14.10;99.90;;;;;;4845575;29;20053;-54
2023/08/15 04:02:21;;;;;;;5.70;1.90;;;14.20;99.90;;;;;;4859718;29;20049;-53
2023/08/15 04:04:48;;;;;;;7.43;2.20;;;14.10;99.90;;;;;;4845552;29;20053;-56
2023/08/15 04:07:14;;;;;;;7.10;2.05;;;14.10;99.90;;;;;;4845531;29;20042;-52
2023/08/15 04:09:41;;;;;;;5.60;2.33;;;14.10;99.90;;;;;;4845457;29;20069;-52
2023/08/15 04:12:08;;;;;;;10.10;2.30;;;14.10;99.90;;;;;;4845428;29;20084;-55
2023/08/15 04:14:35;;;;;;;4.53;2.00;;;14.10;99.90;;;;;;4859604;29;20046;-54
2023/08/15 04:17:02;;;;;;;6.32;2.30;;;14.00;99.90;;;;;;4859659;29;20058;-57
2023/08/15 04:19:28;;;;;;;5.90;1.98;;;14.00;99.90;;;;;;4859443;29;20056;-54
2023/08/15 04:21:55;;;;;;;6.15;2.20;;;14.00;99.90;;;;;;4845182;29;20053;-53
2023/08/15 04:24:22;;;;;;;5.22;2.30;;;13.90;99.90;;;;;;4859591;29;20137;-53
2023/08/15 04:26:49;;;;;;;6.70;2.00;;;13.90;99.90;;;;;;4845060;29;20061;-53
2023/08/15 04:29:16;;;;;;;6.20;2.20;;;13.90;99.90;;;;;;4859517;29;20511;-53
2023/08/15 04:31:43;;;;;;;6.32;2.00;;;13.90;99.90;;;;;;4857996;29;20046;-55
2023/08/15 04:34:10;;;;;;;5.53;2.25;;;13.90;99.90;;;;;;4844932;29;20582;-52
2023/08/15 04:36:43;;;;;;;6.72;2.58;;;13.80;99.90;;;;;;4859446;29;20439;-53
2023/08/15 04:39:10;;;;;;;5.88;2.10;;;13.80;99.90;;;;;;4844840;29;20053;-56
2023/08/15 04:41:37;;;;;;;6.35;2.40;;;13.80;99.90;;;;;;4843874;29;20052;-56
2023/08/15 04:44:04;;;;;;;7.00;2.38;;;13.80;99.90;;;;;;4844906;29;20058;-55
2023/08/15 04:46:31;;;;;;;6.00;2.33;;;13.80;99.90;;;;;;4859205;29;20053;-54
2023/08/15 04:48:57;;;;;;;4.80;2.40;;;13.80;99.90;;;;;;4859229;29;20089;-58
2023/08/15 04:51:24;;;;;;;6.88;2.75;;;13.80;99.90;;;;;;4859265;29;20052;-56
2023/08/15 04:53:51;;;;;;;5.57;2.30;;;13.70;99.90;;;;;;4844740;29;20042;-54
2023/08/15 04:56:18;;;;;;;6.10;2.33;;;13.70;99.90;;;;;;4858789;29;20081;-56
2023/08/15 04:58:44;;;;;;;6.50;2.72;;;13.70;99.90;;;;;;4858659;29;20065;-54
2023/08/15 05:01:11;;;;;;;7.95;2.22;;;13.60;99.90;;;;;;4844348;29;20046;-55
2023/08/15 05:03:38;;;;;;;5.18;2.40;;;13.70;99.90;;;;;;4858253;29;20495;-52
2023/08/15 05:06:05;;;;;;;5.72;2.17;;;13.70;99.90;;;;;;4844486;29;20089;-58
2023/08/15 05:08:32;;;;;;;8.90;2.75;;;13.60;99.90;;;;;;4858938;29;20046;-54
2023/08/15 05:11:00;;;;;;;8.55;2.50;;;13.70;99.90;;;;;;4859057;29;20050;-51
2023/08/15 05:13:27;;;;;;;8.93;2.67;;;13.60;99.90;;;;;;4843285;29;20062;-55
2023/08/15 05:15:54;;;;;;;5.47;2.63;;;13.70;99.90;;;;;;4844721;29;20041;-52
2023/08/15 05:18:21;;;;;;;9.98;2.22;;;13.80;99.90;;;;;;4858326;29;20106;-54
2023/08/15 05:20:48;;;;;;;7.32;2.42;;;13.80;99.90;;;;;;4844767;29;20435;-55
2023/08/15 05:23:15;;;;;;;6.32;2.20;;;13.90;99.90;;;;;;4858168;29;20094;-53
2023/08/15 05:25:43;;;;;;;6.25;2.08;;;13.90;99.90;;;;;;4858255;29;20046;-53
2023/08/15 05:28:11;;;;;;;6.80;2.10;;;13.90;99.90;;;;;;4842751;29;20049;-55
2023/08/15 05:30:38;;;;;;;8.18;2.40;;;14.00;99.90;;;;;;4858189;29;20064;-52
2023/08/15 05:33:05;;;;;;;4.40;1.75;;;14.10;99.90;;;;;;4858181;29;20473;-54
2023/08/15 05:35:32;;;;;;;7.40;1.73;;;14.20;99.90;;;;;;4858295;29;20061;-54
2023/08/15 05:37:59;;;;;;;7.63;1.90;;;14.30;99.90;;;;;;4858301;29;20464;-54
2023/08/15 05:40:26;;;;;;;8.80;1.88;;;14.40;99.90;;;;;;4858391;29;20049;-55
2023/08/15 05:42:53;;;;;;;7.90;2.03;;;14.50;99.90;;;;;;4857792;29;20054;-56
2023/08/15 05:45:19;;;;;;;5.75;2.15;;;14.60;99.90;;;;;;4844011;29;20478;-53
2023/08/15 05:47:46;;;;;;;7.78;2.08;;;14.60;99.90;;;;;;4843838;29;20064;-51
2023/08/15 05:50:13;;;;;;;4.78;1.75;;;14.60;99.90;;;;;;4844154;29;20102;-56
2023/08/15 05:52:40;;;;;;;6.15;1.95;;;14.60;99.90;;;;;;4843923;29;20050;-54
2023/08/15 05:55:07;;;;;;;9.52;2.08;;;14.60;99.90;;;;;;4843342;29;20615;-53
2023/08/15 05:57:33;;;;;;;6.85;1.98;;;14.60;99.90;;;;;;4842223;29;20058;-50
2023/08/15 06:00:00;;;;;;;4.20;1.92;;;14.60;99.90;;;;;;4842590;29;20042;-55
2023/08/15 06:02:38;;;;;;;6.80;2.00;;;14.60;99.90;;;;;;4843057;29;20057;-51
2023/08/15 06:05:05;;;;;;;8.75;2.13;;;14.60;99.90;;;;;;4842560;29;20046;-53
2023/08/15 06:07:32;;;;;;;6.43;2.20;;;14.60;99.90;;;;;;4842942;29;20057;-54
2023/08/15 06:09:59;;;;;;;6.82;2.03;;;14.60;99.90;;;;;;4843654;29;20050;-53
2023/08/15 06:12:26;;;;;;;5.40;1.80;;;14.60;99.90;;;;;;4843453;29;20457;-54
2023/08/15 06:14:52;;;;;;;5.10;1.83;;;14.60;99.90;;;;;;4843917;29;20046;-53
2023/08/15 06:17:19;;;;;;;8.15;2.20;;;14.70;99.90;;;;;;4843506;29;20057;-53
2023/08/15 06:19:46;;;;;;;8.30;1.98;;;14.70;99.90;;;;;;4843368;29;20068;-56
2023/08/15 06:22:15;;;;;;;8.75;2.28;;;14.70;99.90;;;;;;4842891;29;20054;-55
2023/08/15 06:24:41;;;;;;;9.45;2.10;;;14.70;99.90;;;;;;4843230;29;20057;-52
2023/08/15 06:27:08;;;;;;;7.28;2.15;;;14.80;99.90;;;;;;4856928;29;20072;-52
2023/08/15 06:29:35;;;;;;;6.38;2.00;;;14.80;99.90;;;;;;4843284;29;20042;-53
2023/08/15 06:32:02;;;;;;;5.95;1.88;;;14.90;99.90;;;;;;4843138;29;20532;-54
2023/08/15 06:34:29;;;;;;;8.55;2.10;;;14.90;99.90;;;;;;4843030;29;20060;-53
2023/08/15 06:36:55;;;;;;;8.45;2.30;;;14.90;99.90;;;;;;4842865;29;20068;-54
2023/08/15 06:39:22;;;;;;;6.57;1.95;;;15.00;99.90;;;;;;4856942;29;20130;-56
2023/08/15 06:41:49;;;;;;;8.27;1.90;;;15.00;99.90;;;;;;4843048;29;20466;-53
2023/08/15 06:44:21;;;;;;;7.57;2.22;;;15.10;99.90;;;;;;4842845;29;20046;-54
2023/08/15 06:46:52;;;;;;;7.13;2.25;;;15.10;99.90;;;;;;4842555;29;20490;-54
2023/08/15 06:49:19;;;;;;;7.30;2.15;;;15.20;99.90;;;;;;4842600;29;20116;-56
2023/08/15 06:51:46;;;;;;;5.63;2.00;;;15.20;99.90;;;;;;4842734;29;20050;-52
2023/08/15 06:54:13;;;;;;;6.50;2.22;;;15.20;99.90;;;;;;4842239;29;20413;-53
2023/08/15 06:56:39;;;;;;;7.63;2.00;;;15.30;99.90;;;;;;4841244;29;20398;-59
2023/08/15 06:59:06;;;;;;;9.75;2.33;;;15.30;99.90;;;;;;4842503;29;20541;-54
2023/08/15 07:01:33;;;;;;;8.40;2.20;;;15.40;99.90;;;;;;4842656;29;20050;-56
2023/08/15 07:04:00;;;;;;;6.55;2.00;;;15.40;99.90;;;;;;4842853;29;20046;-54
2023/08/15 07:06:27;;;;;;;6.43;2.00;;;15.50;99.90;;;;;;4842642;29;20443;-54
2023/08/15 07:08:54;;;;;;;6.82;2.10;;;15.60;99.90;;;;;;4856849;29;20046;-53
2023/08/15 07:11:21;;;;;;;8.13;2.15;;;15.60;99.90;;;;;;4842618;29;20105;-54
2023/08/15 07:13:48;;;;;;;5.82;2.17;;;15.60;99.90;;;;;;4842776;29;20053;-54
2023/08/15 07:16:14;;;;;;;6.05;2.25;;;15.70;99.90;;;;;;4842519;29;20057;-51
2023/08/15 07:18:41;;;;;;;5.18;2.05;;;15.70;99.90;;;;;;4842650;29;20102;-58
2023/08/15 07:21:08;;;;;;;6.25;2.15;;;15.80;99.90;;;;;;4842474;29;20057;-56
2023/08/15 07:23:35;;;;;;;7.50;2.90;;;15.80;99.90;;;;;;4856459;29;20057;-56
2023/08/15 07:26:02;;;;;;;8.93;2.80;;;15.90;99.90;;;;;;4842503;29;20046;-56
2023/08/15 07:28:29;;;;;;;7.80;2.70;;;15.90;99.90;;;;;;4842747;29;20046;-56
2023/08/15 07:30:56;;;;;;;9.25;2.47;;;16.00;99.90;;;;;;4842367;29;20053;-57
2023/08/15 07:33:23;;;;;;;8.30;2.60;;;16.00;99.90;;;;;;4842385;29;20046;-53
2023/08/15 07:35:49;;;;;;;4.72;2.10;;;16.10;99.90;;;;;;4842229;29;20074;-55
2023/08/15 07:38:16;;;;;;;5.45;2.45;;;16.20;99.90;;;;;;4842155;29;20053;-55
2023/08/15 07:40:43;;;;;;;8.07;2.50;;;16.20;99.90;;;;;;4842216;29;20046;-56
2023/08/15 07:43:10;;;;;;;5.75;2.13;;;16.30;99.90;;;;;;4842535;29;20052;-56
2023/08/15 07:45:37;;;;;;;7.25;2.50;;;16.30;99.90;;;;;;4842154;29;20069;-58
2023/08/15 07:48:05;;;;;;;6.15;2.00;;;16.40;99.90;;;;;;4841962;29;20057;-57
2023/08/15 07:50:32;;;;;;;9.52;2.20;;;16.40;99.90;;;;;;4841942;29;20046;-55
2023/08/15 07:52:58;;;;;;;5.07;1.58;;;16.50;99.90;;;;;;4841841;29;20069;-54
2023/08/15 07:55:25;;;;;;;5.60;2.00;;;16.60;99.90;;;;;;4842116;29;20121;-57
2023/08/15 07:57:54;;;;;;;8.25;2.05;;;16.60;99.90;;;;;;4841624;29;20054;-58
2023/08/15 08:00:22;;;;;;;8.55;2.03;;;16.60;99.90;;;;;;4841967;29;20072;-56
2023/08/15 08:02:49;;;;;;;6.95;1.80;;;16.70;99.90;;;;;;4842166;29;20062;-57
2023/08/15 08:05:16;;;;;;;5.28;1.58;;;16.70;99.90;;;;;;4842754;29;20046;-57
2023/08/15 08:07:43;;;;;;;9.82;2.10;;;16.80;99.90;;;;;;4845093;29;20045;-56
2023/08/15 08:10:10;;;;;;;8.15;2.20;;;16.80;99.90;;;;;;4845375;29;20494;-55
2023/08/15 08:12:37;;;;;;;6.20;2.15;;;16.80;99.90;;;;;;4845368;29;20042;-57
2023/08/15 08:15:04;;;;;;;5.35;2.00;;;16.90;99.90;;;;;;4845391;29;20034;-51
2023/08/15 08:17:30;;;;;;;7.60;1.83;;;16.90;99.90;;;;;;4845216;29;20496;-53
2023/08/15 08:19:57;;;;;;;4.40;2.03;;;17.00;99.90;;;;;;4845378;29;20054;-58
2023/08/15 08:22:24;;;;;;;7.40;2.22;;;17.00;99.90;;;;;;4845269;29;20050;-57
2023/08/15 08:24:53;;;;;;;7.40;1.98;;;17.10;99.90;;;;;;4845542;29;20042;-55
2023/08/15 08:27:20;;;;;;;6.18;2.08;;;17.20;99.90;;;;;;4844952;29;20523;-54
2023/08/15 08:29:47;;;;;;;6.10;1.75;;;17.20;99.90;;;;;;4845212;29;20395;-57
2023/08/15 08:32:14;;;;;;;6.70;1.63;;;17.30;99.90;;;;;;4845273;29;20077;-55
2023/08/15 08:34:41;;;;;;;3.78;1.80;;;17.30;99.90;;;;;;4845044;29;20046;-54
2023/08/15 08:37:08;;;;;;;4.90;1.85;;;17.30;99.90;;;;;;4845101;29;20046;-56
2023/08/15 08:39:35;;;;;;;4.78;1.55;;;17.40;99.90;;;;;;4844827;29;20132;-55
2023/08/15 08:42:01;;;;;;;5.78;2.03;;;17.40;99.90;;;;;;4859116;29;20061;-55
2023/08/15 08:44:28;;;;;;;4.93;2.00;;;17.50;99.90;;;;;;4844954;29;20501;-50
2023/08/15 08:46:55;;;;;;;5.97;1.85;;;17.50;99.90;;;;;;4858590;29;20514;-57
2023/08/15 08:49:22;;;;;;;5.05;1.83;;;17.60;99.90;;;;;;4844919;29;20066;-51
2023/08/15 08:51:48;;;;;;;5.15;1.80;;;17.60;99.90;;;;;;4844611;29;20045;-56
2023/08/15 08:54:15;;;;;;;6.18;2.10;;;17.60;99.90;;;;;;4844622;29;20504;-56
2023/08/15 08:56:44;;;;;;;4.82;2.28;;;17.70;99.90;;;;;;4858647;29;20053;-56
2023/08/15 08:59:15;;;;;;;4.43;1.38;;;17.70;99.90;;;;;;4844473;29;20477;-51
2023/08/15 09:01:42;;;;;;;4.68;1.63;;;17.70;99.90;;;;;;4844657;29;20492;-58
2023/08/15 09:04:09;;;;;;;6.40;1.77;;;17.80;99.90;;;;;;4844525;29;20430;-56
2023/08/15 09:06:35;;;;;;;4.65;1.70;;;17.80;99.90;;;;;;4844366;29;20474;-53
2023/08/15 09:09:03;;;;;;;7.28;2.13;;;17.90;99.90;;;;;;4844448;29;20057;-56
2023/08/15 09:11:30;;;;;;;4.07;1.55;;;17.90;99.90;;;;;;4843899;29;20057;-51
2023/08/15 09:13:57;;;;;;;5.70;1.60;;;18.00;99.90;;;;;;4843902;29;20045;-50
2023/08/15 09:16:24;;;;;;;4.45;1.90;;;18.10;99.90;;;;;;4843255;29;20042;-49
2023/08/15 09:18:50;;;;;;;6.57;1.73;;;18.10;99.90;;;;;;4843818;29;20065;-54
2023/08/15 09:21:17;;;;;;;5.72;1.63;;;18.20;99.90;;;;;;4844019;29;20049;-50
2023/08/15 09:23:44;;;;;;;3.58;1.70;;;18.30;99.90;;;;;;4844234;29;20049;-50
2023/08/15 09:26:11;;;;;;;4.90;1.58;;;18.40;99.90;;;;;;4858138;29;20064;-51
2023/08/15 09:28:39;;;;;;;4.55;1.70;;;18.50;99.90;;;;;;4844170;29;20065;-51
2023/08/15 09:31:06;;;;;;;5.28;1.85;;;18.50;99.90;;;;;;4843990;29;20042;-50
2023/08/15 09:33:33;;;;;;;4.90;1.60;;;18.50;99.90;;;;;;4843800;29;20041;-49
2023/08/15 09:36:03;;;;;;;6.90;1.75;;;18.60;99.90;;;;;;4844041;29;20069;-53
2023/08/15 09:38:30;;;;;;;4.82;1.40;;;18.70;99.90;;;;;;4844227;29;20054;-52
2023/08/15 09:40:56;;;;;;;4.78;1.70;;;18.70;99.90;;;;;;4843739;29;20102;-54
2023/08/15 09:43:23;;;;;;;4.18;1.67;;;18.80;99.90;;;;;;4843761;29;20081;-53
2023/08/15 09:45:50;;;;;;;2.90;1.30;;;18.80;99.90;;;;;;4857790;29;20079;-54
2023/08/15 09:48:17;;;;;;;4.78;1.67;;;18.90;99.90;;;;;;4843485;29;20064;-53
2023/08/15 09:50:44;;;;;;;2.20;0.93;;;19.00;99.90;;;;;;4857971;29;20475;-57
2023/08/15 09:53:10;;;;;;;4.57;1.23;;;19.10;99.90;;;;;;4843697;29;20517;-56
2023/08/15 09:55:37;;;;;;;8.60;1.58;;;19.10;99.90;;;;;;4843752;29;20061;-56
2023/08/15 09:58:04;;;;;;;2.45;1.25;;;19.10;99.90;;;;;;4843136;29;20156;-55
2023/08/15 10:00:31;;;;;;;4.10;1.25;;;19.10;99.90;;;;;;4843592;29;20442;-54
2023/08/15 10:02:58;;;;;;;4.43;1.52;;;19.20;99.90;;;;;;4842184;29;20050;-55
2023/08/15 10:05:25;;;;;;;3.42;1.30;;;19.20;99.90;;;;;;4843263;29;20087;-57
2023/08/15 10:07:52;;;;;;;3.88;1.38;;;19.30;99.90;;;;;;4843019;29;20173;-56
2023/08/15 10:10:19;;;;;;;3.20;1.33;;;19.30;99.90;;;;;;4843518;29;20113;-54
2023/08/15 10:12:45;;;;;;;3.67;1.33;;;19.40;99.90;;;;;;4843096;29;20070;-55
2023/08/15 10:15:12;;;;;;;4.20;1.23;;;19.40;99.90;;;;;;4842936;29;20514;-53
2023/08/15 10:17:39;;;;;;;5.05;1.40;;;19.50;99.90;;;;;;4843472;29;20046;-55
2023/08/15 10:20:10;;;;;;;9.75;1.65;;;19.60;99.90;;;;;;4843353;29;20418;-57
2023/08/15 10:22:38;;;;;;;6.78;1.63;;;19.70;99.90;;;;;;4843253;29;20049;-56
2023/08/15 10:25:05;;;;;;;5.45;1.40;;;19.90;99.90;;;;;;4843343;29;20046;-56
2023/08/15 10:27:31;;;;;;;3.80;1.42;;;20.00;99.90;;;;;;4842860;29;20418;-57
2023/08/15 10:29:58;;;;;;;5.60;1.30;;;20.00;99.90;;;;;;4842416;29;20056;-57
2023/08/15 10:32:25;;;;;;;5.10;1.60;;;20.10;99.90;;;;;;4842962;29;20049;-54
2023/08/15 10:34:52;;;;;;;4.40;1.40;;;20.20;99.90;;;;;;4843203;29;20462;-55
2023/08/15 10:37:19;;;;;;;4.43;1.40;;;20.30;99.90;;;;;;4842685;29;20062;-53
2023/08/15 10:39:46;;;;;;;3.08;1.10;;;20.40;99.90;;;;;;4842472;29;20502;-52
2023/08/15 10:42:13;;;;;;;5.18;1.50;;;20.50;99.90;;;;;;4842692;29;20061;-57
2023/08/15 10:44:40;;;;;;;4.70;1.77;;;20.60;99.90;;;;;;4856974;29;20419;-57
2023/08/15 10:47:06;;;;;;;4.18;1.33;;;20.80;99.90;;;;;;4842941;29;20049;-56
2023/08/15 10:49:33;;;;;;;4.85;1.40;;;20.90;99.90;;;;;;4843114;29;20042;-57
2023/08/15 10:52:00;;;;;;;2.75;1.02;;;20.90;99.90;;;;;;4842674;29;20050;-55
2023/08/15 10:54:27;;;;;;;4.07;1.13;;;20.80;99.90;;;;;;4842681;29;20058;-57
2023/08/15 10:56:54;;;;;;;4.75;1.10;;;20.60;99.80;;;;;;4842634;29;20057;-56
2023/08/15 10:59:21;;;;;;;3.22;1.40;;;20.50;99.10;;;;;;4842571;29;20498;-55
2023/08/15 11:01:48;;;;;;;2.58;0.80;;;20.50;98.70;;;;;;4842320;29;20046;-57
2023/08/15 11:04:14;;;;;;;3.22;1.20;;;20.50;99.40;;;;;;4856617;29;20117;-52
2023/08/15 11:06:41;;;;;;;3.88;1.00;;;20.70;99.40;;;;;;4842612;29;20510;-52
2023/08/15 11:09:10;;;;;;;3.28;1.15;;;20.90;99.20;;;;;;4842421;29;20197;-53
2023/08/15 11:11:37;;;;;;;4.97;1.08;;;21.00;99.40;;;;;;4842567;29;20390;-52
2023/08/15 11:14:04;;;;;;;3.85;1.08;;;21.20;99.20;;;;;;4842302;29;20129;-58
2023/08/15 11:16:31;;;;;;;3.13;1.10;;;21.40;98.90;;;;;;4842171;29;20053;-53
2023/08/15 11:18:58;;;;;;;3.22;1.23;;;21.40;99.00;;;;;;4842433;29;20094;-57
2023/08/15 11:21:25;;;;;;;4.47;1.27;;;21.40;98.70;;;;;;4856520;29;20054;-54
2023/08/15 11:23:54;;;;;;;3.83;1.20;;;21.40;98.70;;;;;;4842642;29;20069;-57
2023/08/15 11:26:21;;;;;;;3.00;1.08;;;21.30;98.70;;;;;;4842370;29;20406;-57
2023/08/15 11:28:48;;;;;;;6.55;1.23;;;21.20;98.40;;;;;;4842165;29;20046;-58
2023/08/15 11:31:15;;;;;;;3.30;0.90;;;21.20;98.50;;;;;;4842297;29;20050;-57
2023/08/15 11:33:48;;;;;;;4.05;1.10;;;21.20;98.60;;;;;;4842200;29;20398;-55
2023/08/15 11:36:15;;;;;;;3.72;0.98;;;21.30;98.60;;;;;;4841894;29;20053;-57
2023/08/15 11:38:42;;;;;;;3.53;1.00;;;21.30;98.60;;;;;;4842250;29;20053;-53
2023/08/15 11:41:09;;;;;;;3.95;1.20;;;21.40;98.60;;;;;;4844681;29;20073;-55
2023/08/15 11:43:36;;;;;;;3.55;1.20;;;21.50;98.60;;;;;;4845472;29;20064;-59
2023/08/15 11:46:03;;;;;;;3.70;0.98;;;21.50;98.70;;;;;;4845715;29;20132;-53
2023/08/15 11:48:30;;;;;;;3.42;1.23;;;21.50;98.10;;;;;;4845861;29;20478;-58
2023/08/15 11:50:57;;;;;;;4.38;1.00;;;21.40;97.20;;;;;;4846187;29;20424;-56
2023/08/15 11:53:24;;;;;;;3.10;1.33;;;21.40;97.70;;;;;;4845848;29;20046;-57
2023/08/15 11:55:51;;;;;;;5.75;1.17;;;21.40;98.20;;;;;;4845699;29;20046;-55
2023/08/15 11:58:18;;;;;;;3.22;0.98;;;21.40;98.30;;;;;;4845018;29;20054;-57
2023/08/15 12:00:44;;;;;;;4.05;1.10;;;21.50;99.00;;;;;;4845208;29;20054;-55
2023/08/15 12:03:11;;;;;;;4.22;1.35;;;21.50;97.70;;;;;;4845007;29;20050;-55
2023/08/15 12:05:38;;;;;;;2.13;0.93;;;21.70;97.90;;;;;;4845269;29;20065;-54
2023/08/15 12:08:05;;;;;;;5.35;1.23;;;21.90;97.50;;;;;;4845521;29;20138;-56
2023/08/15 12:10:32;;;;;;;2.75;1.20;;;22.10;97.40;;;;;;4845526;29;20045;-55
2023/08/15 12:12:58;;;;;;;2.35;0.90;;;22.20;97.00;;;;;;4845448;29;20053;-57
2023/08/15 12:15:25;;;;;;;3.80;1.20;;;22.20;96.10;;;;;;4845180;29;20042;-54
2023/08/15 12:17:52;;;;;;;5.30;1.55;;;22.10;96.10;;;;;;4845235;29;20050;-57
2023/08/15 12:20:19;;;;;;;4.00;1.13;;;22.00;96.50;;;;;;4845283;29;20042;-54
2023/08/15 12:22:45;;;;;;;6.57;1.25;;;21.90;96.50;;;;;;4845155;29;20128;-55
2023/08/15 12:25:13;;;;;;;3.10;1.30;;;21.90;96.80;;;;;;4845323;29;20070;-57
2023/08/15 12:27:40;;;;;;;3.38;1.10;;;21.90;96.50;;;;;;4844862;29;20052;-57
2023/08/15 12:30:07;;;;;;;4.63;1.42;;;22.00;95.80;;;;;;4844931;29;20053;-57
2023/08/15 12:32:39;;;;;;;2.92;1.08;;;22.20;96.20;;;;;;4844718;29;20065;-58
2023/08/15 12:35:06;;;;;;;4.13;1.40;;;22.30;96.10;;;;;;4845154;29;20509;-57
2023/08/15 12:37:33;;;;;;;4.25;1.27;;;22.50;95.90;;;;;;4845058;29;20268;-55
2023/08/15 12:40:00;;;;;;;4.45;1.23;;;22.60;95.90;;;;;;4845071;29;20060;-56
2023/08/15 12:42:27;;;;;;;3.53;1.20;;;22.60;95.80;;;;;;4844876;29;20050;-57
2023/08/15 12:44:54;;;;;;;4.00;1.30;;;22.70;96.30;;;;;;4858753;29;20062;-57